Date,TemperatureHighF,TemperatureAvgF,TemperatureLowF,DewpointHighF,DewpointAvgF,DewpointLowF,HumidityHigh,HumidityAvg,HumidityLow,PressureMaxIn,PressureMinIn,WindSpeedMaxMPH,WindSpeedAvgMPH,GustSpeedMaxMPH,PrecipitationSumIn
2013-3-1,32,29,26,32,26,20,100,89,77,29.89,29.72,12,9,0,0.00
2013-3-2,25,23,22,22,20,18,92,85,79,29.91,29.85,9,8,0,0.00
2013-3-3,23,22,20,21,18,17,90,86,75,29.87,29.83,9,6,0,0.00
2013-3-4,28,23,21,21,18,16,83,78,74,30.01,29.88,12,10,0,0.00
2013-3-5,32,27,23,23,20,18,87,78,65,30.09,29.98,8,4,0,0.00
2013-3-6,39,33,19,31,27,17,97,80,67,30.13,29.96,11,6,0,0.00
2013-3-7,37,33,30,30,26,23,79,74,68,30.25,30.13,9,5,0,0.00
2013-3-8,37,32,27,27,24,20,99,73,50,30.37,30.24,12,8,0,0.00
2013-3-9,46,36,29,31,28,25,88,73,52,30.40,30.25,7,4,0,0.00
2013-3-10,57,48,33,31,28,25,76,47,34,30.19,30.05,15,11,0,0.00
2013-3-11,52,49,46,44,32,26,72,50,44,30.05,29.77,19,13,0,0.00
2013-3-12,53,40,35,46,35,28,96,81,72,29.92,29.76,14,7,0,0.00
2013-3-13,39,33,25,28,22,15,74,62,49,29.92,29.85,14,8,0,0.00
2013-3-14,30,24,18,15,10,5,83,56,34,30.02,29.93,18,14,0,0.00
2013-3-15,37,31,24,29,23,13,80,71,57,30.01,29.73,14,9,0,0.00
2013-3-16,30,25,19,21,17,15,87,71,61,29.96,29.84,10,5,0,0.00
2013-3-17,29,24,19,21,17,12,90,75,56,30.32,29.97,7,5,0,0.00
2013-3-18,33,26,17,27,18,10,100,74,46,30.33,29.83,17,11,0,0.00
2013-3-19,38,32,26,34,26,17,100,80,56,29.83,29.71,18,9,0,0.00
2013-3-20,32,28,23,23,18,13,79,66,51,29.83,29.80,11,9,0,0.00
2013-3-21,29,25,20,24,16,12,90,69,47,29.83,29.72,9,6,0,0.00
2013-3-22,31,28,24,25,23,20,90,81,74,29.89,29.72,12,10,0,0.00
2013-3-23,36,32,29,25,22,21,81,68,56,29.99,29.88,13,9,0,0.00
2013-3-24,37,32,27,26,23,20,88,69,54,29.98,29.76,9,5,0,0.00
2013-3-25,39,34,29,28,25,23,80,70,56,29.74,29.62,9,5,0,0.00
2013-3-26,44,36,31,30,27,24,83,70,52,29.92,29.71,9,6,0,0.00
2013-3-27,45,36,32,34,29,25,97,76,53,30.05,29.89,11,8,0,0.00
2013-3-28,43,37,32,34,31,30,95,79,64,30.20,30.03,10,8,0,0.00
2013-3-29,46,39,36,32,31,27,82,72,48,30.20,30.14,9,6,0,0.00
2013-3-30,52,42,34,28,21,-100,73,52,31,30.21,30.09,9,6,0,0.00
2013-3-31,53,41,34,42,30,25,100,68,40,30.07,29.70,17,8,0,0.00